Last Tycoon — ZDJZ6 — position and weather

sailwx.info

Track history (hours):
 
Tides and Currents Weather Stations Pressure Air Temp Water Temp Dewpoint Dewpoint Depression Visibility Wind Speed Wind Dir Waves Ship Positions

Last Tycoon

Last reported at 2016-Jun-06 06:15 UTC. Time now 2016-Jun-26 10:14 UTC.
Position N 29°44' W 089°60'.
Warning: this ship's position is 20 days out of date.

Length 180 m; draft 11.2 m.

Type: Cargo ship. MMSI: 236607000.

Date/timePositionNaut miles runAvg speedWind from/ knotsBaromVisibWave heightAir tempDewpointWater temp
2016-Jun-06 06:15N 29°44' W 089°60'812.0
2016-Jun-06 05:33N 29°52' W 089°59'5 5.3
2016-Jun-06 04:34N 29°57' W 090°01'6 6.2
2016-Jun-06 03:32N 29°56' W 090°09'0 0.0
2016-Jun-06 02:32N 29°56' W 090°09'0 0.0
2016-Jun-06 01:32N 29°56' W 090°09'0 0.0
2016-Jun-06 00:32N 29°56' W 090°09'0 0.0
2016-Jun-05 23:32N 29°56' W 090°09'0 0.0
2016-Jun-05 16:17N 29°56' W 090°09'0 0.0
2016-Jun-05 15:32N 29°56' W 090°09'0 0.0
2016-Jun-05 14:29N 29°56' W 090°09'0 0.0
2016-Jun-05 13:32N 29°56' W 090°09'0 0.0
2016-Jun-05 12:32N 29°56' W 090°09'0 0.0
2016-Jun-05 11:32N 29°56' W 090°09'0 0.0
2016-Jun-05 10:32N 29°56' W 090°09'0 0.0
2016-Jun-05 09:32N 29°56' W 090°09'0 0.0
2016-Jun-05 08:32N 29°56' W 090°09'0 0.0
2016-Jun-05 07:32N 29°56' W 090°09'0 0.0
2016-Jun-05 06:32N 29°56' W 090°09'0 0.0
2016-Jun-05 05:32N 29°56' W 090°09'0 0.0
2016-Jun-05 04:29N 29°56' W 090°09'0 0.0
2016-Jun-05 03:32N 29°56' W 090°09'0 0.0
2016-Jun-05 02:32N 29°56' W 090°09'0 0.0
2016-Jun-04 22:11N 29°56' W 090°09'0 0.0
2016-Jun-04 16:23N 29°56' W 090°09'0 0.0
2016-Jun-04 15:20N 29°56' W 090°09'0 0.0
2016-Jun-04 14:32N 29°56' W 090°09'0 0.0
2016-Jun-04 13:32N 29°56' W 090°09'0 0.0
2016-Jun-04 12:32N 29°56' W 090°09'0 0.0
2016-Jun-04 11:29N 29°56' W 090°09'0 0.0
2016-Jun-04 10:32N 29°56' W 090°09'0 0.0
2016-Jun-04 09:32N 29°56' W 090°09'0 0.0
2016-Jun-04 08:32N 29°56' W 090°09'0 0.0
2016-Jun-04 07:32N 29°56' W 090°09'0 0.0
2016-Jun-04 06:32N 29°56' W 090°09'0 0.0
2016-Jun-04 05:32N 29°56' W 090°09'0 0.0
2016-Jun-04 04:32N 29°56' W 090°09'0 0.0
2016-Jun-04 03:29N 29°56' W 090°09'0 0.0
2016-Jun-04 02:32N 29°56' W 090°09'0 0.0
2016-Jun-04 01:29N 29°56' W 090°09'0 0.0
2016-Jun-04 00:29N 29°56' W 090°09'0 0.0
2016-Jun-03 23:32N 29°56' W 090°09'0 0.0
2016-Jun-03 22:32N 29°56' W 090°09'0 0.0
2016-Jun-03 21:32N 29°56' W 090°09'0 0.0
2016-Jun-03 20:29N 29°56' W 090°09'0 0.0
2016-Jun-03 19:32N 29°56' W 090°09'0 0.0
2016-Jun-03 18:32N 29°56' W 090°09'0 0.0
2016-Jun-03 17:32N 29°56' W 090°09'0 0.0
2016-Jun-03 16:32N 29°56' W 090°09'0 0.0
2016-Jun-03 15:32N 29°56' W 090°09'0 0.0
2016-Jun-03 14:29N 29°56' W 090°09'0 0.0
2016-Jun-03 13:32N 29°56' W 090°09'0 0.0
2016-Jun-03 12:32N 29°56' W 090°09'0 0.0
2016-Jun-03 11:32N 29°56' W 090°09'0 0.0
2016-Jun-03 10:31N 29°56' W 090°09'0 0.0
2016-Jun-03 09:32N 29°56' W 090°09'0 0.0
2016-Jun-03 08:31N 29°56' W 090°09'0 0.0
2016-Jun-03 07:31N 29°56' W 090°09'0 0.0
2016-Jun-03 06:32N 29°56' W 090°09'0 0.0
2016-Jun-03 05:32N 29°56' W 090°09'0 0.0
2016-Jun-03 04:31N 29°56' W 090°09'0 0.0
2016-Jun-03 03:31N 29°56' W 090°09'0 0.1
2016-Jun-03 02:34N 29°56' W 090°08'6 5.7
2016-Jun-03 01:34N 29°57' W 090°02'2 1.6
2016-Jun-03 00:31N 29°56' W 090°00'0 0.0
2016-Jun-02 23:31N 29°56' W 090°00'0 0.0
2016-Jun-02 22:31N 29°56' W 090°00'0 0.0
2016-Jun-02 21:31N 29°56' W 090°00'0 0.0
2016-Jun-02 20:31N 29°56' W 090°00'0 0.0
2016-Jun-02 19:31N 29°56' W 090°00'0 0.0
2016-Jun-02 18:31N 29°56' W 090°00'0 0.0
2016-Jun-02 17:31N 29°56' W 090°00'0 0.0
2016-Jun-02 16:31N 29°56' W 090°00'0 0.0
2016-Jun-02 15:31N 29°56' W 090°00'0 0.0
2016-Jun-02 14:31N 29°56' W 090°00'0 0.0
2016-Jun-02 13:31N 29°56' W 090°00'0 0.0
2016-Jun-02 12:31N 29°56' W 090°00'0 0.0
2016-Jun-02 11:31N 29°56' W 090°00'0 0.0
2016-Jun-02 10:31N 29°56' W 090°00'0 0.0
2016-Jun-02 09:31N 29°56' W 090°00'0 0.0
2016-Jun-02 08:31N 29°56' W 090°00'0 0.0
2016-Jun-02 07:31N 29°56' W 090°00'0 0.0
2016-Jun-02 06:31N 29°56' W 090°00'0 0.0
2016-Jun-02 05:31N 29°56' W 090°00'0 0.0
2016-Jun-02 04:31N 29°56' W 090°00'0 0.0
2016-Jun-02 03:31N 29°56' W 090°00'2 2.2
2016-Jun-02 02:33N 29°55' W 089°58'3 3.3
2016-Jun-02 01:33N 29°52' W 089°59'  
Track history (hours):
 
Tides and Currents Weather Stations Pressure Air Temp Water Temp Dewpoint Dewpoint Depression Visibility Wind Speed Wind Dir Waves Ship Positions

Last Tycoon

Last reported at 2016-Jun-06 06:15 UTC. Time now 2016-Jun-26 10:14 UTC.
Position N 29°44' W 089°60'.
Warning: this ship's position is 20 days out of date.

Length 180 m; draft 11.2 m.

Type: Cargo ship. MMSI: 236607000.

Date/timePositionNaut miles runAvg speedWind from/ knotsBaromVisibWave heightAir tempDewpointWater temp
2016-Jun-06 06:15N 29°44' W 089°60'812.0
2016-Jun-06 05:33N 29°52' W 089°59'5 5.3
2016-Jun-06 04:34N 29°57' W 090°01'6 6.2
2016-Jun-06 03:32N 29°56' W 090°09'0 0.0
2016-Jun-06 02:32N 29°56' W 090°09'0 0.0
2016-Jun-06 01:32N 29°56' W 090°09'0 0.0
2016-Jun-06 00:32N 29°56' W 090°09'0 0.0
2016-Jun-05 23:32N 29°56' W 090°09'0 0.0
2016-Jun-05 16:17N 29°56' W 090°09'0 0.0
2016-Jun-05 15:32N 29°56' W 090°09'0 0.0
2016-Jun-05 14:29N 29°56' W 090°09'0 0.0
2016-Jun-05 13:32N 29°56' W 090°09'0 0.0
2016-Jun-05 12:32N 29°56' W 090°09'0 0.0
2016-Jun-05 11:32N 29°56' W 090°09'0 0.0
2016-Jun-05 10:32N 29°56' W 090°09'0 0.0
2016-Jun-05 09:32N 29°56' W 090°09'0 0.0
2016-Jun-05 08:32N 29°56' W 090°09'0 0.0
2016-Jun-05 07:32N 29°56' W 090°09'0 0.0
2016-Jun-05 06:32N 29°56' W 090°09'0 0.0
2016-Jun-05 05:32N 29°56' W 090°09'0 0.0
2016-Jun-05 04:29N 29°56' W 090°09'0 0.0
2016-Jun-05 03:32N 29°56' W 090°09'0 0.0
2016-Jun-05 02:32N 29°56' W 090°09'0 0.0
2016-Jun-04 22:11N 29°56' W 090°09'0 0.0
2016-Jun-04 16:23N 29°56' W 090°09'0 0.0
2016-Jun-04 15:20N 29°56' W 090°09'0 0.0
2016-Jun-04 14:32N 29°56' W 090°09'0 0.0
2016-Jun-04 13:32N 29°56' W 090°09'0 0.0
2016-Jun-04 12:32N 29°56' W 090°09'0 0.0
2016-Jun-04 11:29N 29°56' W 090°09'0 0.0
2016-Jun-04 10:32N 29°56' W 090°09'0 0.0
2016-Jun-04 09:32N 29°56' W 090°09'0 0.0
2016-Jun-04 08:32N 29°56' W 090°09'0 0.0
2016-Jun-04 07:32N 29°56' W 090°09'0 0.0
2016-Jun-04 06:32N 29°56' W 090°09'0 0.0
2016-Jun-04 05:32N 29°56' W 090°09'0 0.0
2016-Jun-04 04:32N 29°56' W 090°09'0 0.0
2016-Jun-04 03:29N 29°56' W 090°09'0 0.0
2016-Jun-04 02:32N 29°56' W 090°09'0 0.0
2016-Jun-04 01:29N 29°56' W 090°09'0 0.0
2016-Jun-04 00:29N 29°56' W 090°09'0 0.0
2016-Jun-03 23:32N 29°56' W 090°09'0 0.0
2016-Jun-03 22:32N 29°56' W 090°09'0 0.0
2016-Jun-03 21:32N 29°56' W 090°09'0 0.0
2016-Jun-03 20:29N 29°56' W 090°09'0 0.0
2016-Jun-03 19:32N 29°56' W 090°09'0 0.0
2016-Jun-03 18:32N 29°56' W 090°09'0 0.0
2016-Jun-03 17:32N 29°56' W 090°09'0 0.0
2016-Jun-03 16:32N 29°56' W 090°09'0 0.0
2016-Jun-03 15:32N 29°56' W 090°09'0 0.0
2016-Jun-03 14:29N 29°56' W 090°09'0 0.0
2016-Jun-03 13:32N 29°56' W 090°09'0 0.0
2016-Jun-03 12:32N 29°56' W 090°09'0 0.0
2016-Jun-03 11:32N 29°56' W 090°09'0 0.0
2016-Jun-03 10:31N 29°56' W 090°09'0 0.0
2016-Jun-03 09:32N 29°56' W 090°09'0 0.0
2016-Jun-03 08:31N 29°56' W 090°09'0 0.0
2016-Jun-03 07:31N 29°56' W 090°09'0 0.0
2016-Jun-03 06:32N 29°56' W 090°09'0 0.0
2016-Jun-03 05:32N 29°56' W 090°09'0 0.0
2016-Jun-03 04:31N 29°56' W 090°09'0 0.0
2016-Jun-03 03:31N 29°56' W 090°09'0 0.1
2016-Jun-03 02:34N 29°56' W 090°08'6 5.7
2016-Jun-03 01:34N 29°57' W 090°02'2 1.6
2016-Jun-03 00:31N 29°56' W 090°00'0 0.0
2016-Jun-02 23:31N 29°56' W 090°00'0 0.0
2016-Jun-02 22:31N 29°56' W 090°00'0 0.0
2016-Jun-02 21:31N 29°56' W 090°00'0 0.0
2016-Jun-02 20:31N 29°56' W 090°00'0 0.0
2016-Jun-02 19:31N 29°56' W 090°00'0 0.0
2016-Jun-02 18:31N 29°56' W 090°00'0 0.0
2016-Jun-02 17:31N 29°56' W 090°00'0 0.0
2016-Jun-02 16:31N 29°56' W 090°00'0 0.0
2016-Jun-02 15:31N 29°56' W 090°00'0 0.0
2016-Jun-02 14:31N 29°56' W 090°00'0 0.0
2016-Jun-02 13:31N 29°56' W 090°00'0 0.0
2016-Jun-02 12:31N 29°56' W 090°00'0 0.0
2016-Jun-02 11:31N 29°56' W 090°00'0 0.0
2016-Jun-02 10:31N 29°56' W 090°00'0 0.0
2016-Jun-02 09:31N 29°56' W 090°00'0 0.0
2016-Jun-02 08:31N 29°56' W 090°00'0 0.0
2016-Jun-02 07:31N 29°56' W 090°00'0 0.0
2016-Jun-02 06:31N 29°56' W 090°00'0 0.0
2016-Jun-02 05:31N 29°56' W 090°00'0 0.0
2016-Jun-02 04:31N 29°56' W 090°00'0 0.0
2016-Jun-02 03:31N 29°56' W 090°00'2 2.2
2016-Jun-02 02:33N 29°55' W 089°58'3 3.3
2016-Jun-02 01:33N 29°52' W 089°59'  

Dump ship's entire track history